Time;durP1;ratioP1;P1;durP2;ratioP2;P2;SDS_P1;SDS_P2;PMS_P1;PMS_P2;Temp;Humidity;BMP_temperature;BMP_pressure;BME280_temperature;BME280_humidity;BME280_pressure;Samples;Min_cycle;Max_cycle;Signal;HPM_P1;HPM_P2
2022/04/22 00:00:33;;;;;;;5.85;2.55;;;;;;;15.83;37.01;97086.09;5090913;28;20048;-49
2022/04/22 00:02:59;;;;;;;13.82;2.70;;;;;;;15.79;37.23;97083.19;5092262;28;20564;-50
2022/04/22 00:05:24;;;;;;;10.10;2.60;;;;;;;15.80;37.16;97076.84;5092182;28;20111;-50
2022/04/22 00:07:50;;;;;;;10.25;4.13;;;;;;;15.76;37.10;97065.25;5092156;28;20093;-49
2022/04/22 00:10:16;;;;;;;14.52;10.38;;;;;;;15.72;37.24;97058.88;5092073;28;20024;-50
2022/04/22 00:12:43;;;;;;;6.25;3.10;;;;;;;15.70;37.38;97056.50;5090788;28;20020;-50
2022/04/22 00:15:09;;;;;;;18.60;10.18;;;;;;;15.76;37.30;97059.94;5090722;28;20039;-50
2022/04/22 00:17:35;;;;;;;8.13;2.95;;;;;;;15.79;37.30;97056.75;5092086;28;20028;-50
2022/04/22 00:20:03;;;;;;;7.85;2.85;;;;;;;15.76;37.20;97055.44;5090642;28;20039;-49
2022/04/22 00:22:28;;;;;;;10.55;3.47;;;;;;;15.70;37.44;97053.88;5091963;28;20390;-50
2022/04/22 00:24:54;;;;;;;11.63;2.97;;;;;;;15.58;37.69;97054.19;5091953;28;20024;-51
2022/04/22 00:27:20;;;;;;;10.82;2.47;;;;;;;15.46;37.60;97052.94;5091924;28;20020;-50
2022/04/22 00:29:46;;;;;;;9.70;3.55;;;;;;;15.30;38.21;97053.00;5090271;28;20063;-50
2022/04/22 00:32:11;;;;;;;4.05;2.15;;;;;;;15.23;38.42;97057.00;5091840;28;20016;-50
2022/04/22 00:34:37;;;;;;;7.47;2.90;;;;;;;15.10;38.24;97063.66;5090523;28;20055;-50
2022/04/22 00:37:03;;;;;;;9.80;4.40;;;;;;;14.90;40.42;97061.84;5091588;28;20417;-49
2022/04/22 00:39:29;;;;;;;6.45;3.60;;;;;;;14.39;42.25;97065.34;5090467;28;20031;-50
2022/04/22 00:41:54;;;;;;;22.67;6.68;;;;;;;14.05;43.64;97060.56;5091748;28;20016;-50
2022/04/22 00:44:20;;;;;;;5.40;2.80;;;;;;;13.81;44.46;97068.19;5091788;28;20024;-50
2022/04/22 00:46:46;;;;;;;5.07;2.83;;;;;;;13.53;45.37;97062.31;5091816;28;20502;-50
2022/04/22 00:49:12;;;;;;;6.63;2.83;;;;;;;13.19;46.21;97065.31;5090316;28;20028;-50
2022/04/22 00:51:38;;;;;;;9.60;3.28;;;;;;;12.93;46.54;97064.41;5091646;28;20070;-50
2022/04/22 00:54:05;;;;;;;7.18;3.88;;;;;;;12.77;47.35;97068.00;5090369;28;20024;-50
2022/04/22 00:56:31;;;;;;;9.13;4.47;;;;;;;12.64;47.50;97061.34;5090348;28;20028;-49
2022/04/22 00:58:59;;;;;;;5.88;4.40;;;;;;;12.48;48.38;97065.69;5091674;28;20074;-49
2022/04/22 01:01:25;;;;;;;8.27;4.30;;;;;;;12.41;48.95;97062.47;5091553;28;20255;-50
2022/04/22 01:12:08;;;;;;;9.95;6.38;;;;;;;12.83;49.23;97064.34;5091531;28;20055;-50
2022/04/22 01:14:34;;;;;;;12.27;8.73;;;;;;;12.62;49.37;97063.44;5091588;28;20078;-50
2022/04/22 01:17:01;;;;;;;9.55;6.30;;;;;;;12.46;49.50;97067.00;5090128;28;20031;-50
2022/04/22 01:19:27;;;;;;;10.60;6.15;;;;;;;12.39;49.25;97056.69;5091456;28;20455;-49
2022/04/22 01:21:53;;;;;;;11.07;6.68;;;;;;;12.33;50.06;97061.09;5091449;28;20493;-50
2022/04/22 01:24:18;;;;;;;7.25;3.42;;;;;;;12.42;49.99;97058.81;5091397;28;20032;-50
2022/04/22 01:26:46;;;;;;;9.55;3.65;;;;;;;12.47;49.96;97058.06;5090036;28;20019;-49
2022/04/22 01:29:13;;;;;;;6.47;3.35;;;;;;;12.39;49.61;97056.69;5089966;28;20542;-49
2022/04/22 01:31:39;;;;;;;4.47;3.50;;;;;;;12.17;49.59;97059.41;5091333;28;20050;-50
2022/04/22 01:34:05;;;;;;;6.30;3.53;;;;;;;12.05;49.51;97064.81;5091296;28;20418;-49
2022/04/22 01:36:31;;;;;;;10.27;4.28;;;;;;;12.02;49.55;97067.97;5091113;28;20493;-49
2022/04/22 01:38:56;;;;;;;9.45;3.20;;;;;;;12.05;49.23;97062.19;5091315;28;20025;-50
2022/04/22 01:41:22;;;;;;;5.95;3.35;;;;;;;12.13;49.58;97064.38;5091633;28;20024;-49
2022/04/22 01:43:48;;;;;;;13.38;4.70;;;;;;;12.07;49.67;97065.34;5094876;28;20081;-50
2022/04/22 01:46:15;;;;;;;6.25;3.88;;;;;;;11.96;50.18;97063.69;5093477;28;20028;-50
2022/04/22 01:48:41;;;;;;;10.60;6.60;;;;;;;11.89;50.86;97063.09;5093364;28;20100;-49
2022/04/22 01:51:07;;;;;;;14.65;6.50;;;;;;;11.84;51.21;97068.28;5094752;28;20050;-49
2022/04/22 01:53:33;;;;;;;7.93;5.13;;;;;;;11.85;51.38;97073.31;5093386;28;20066;-50
2022/04/22 01:55:58;;;;;;;8.80;6.78;;;;;;;11.73;51.44;97068.19;5093260;28;20077;-49
2022/04/22 01:58:24;;;;;;;6.38;5.35;;;;;;;11.52;51.79;97064.53;5094625;28;20052;-49
2022/04/22 02:00:50;;;;;;;9.00;7.53;;;;;;;11.40;52.09;97066.50;5093221;28;20126;-50
2022/04/22 02:03:15;;;;;;;7.32;6.13;;;;;;;11.35;52.19;97063.84;5094459;28;20046;-49
2022/04/22 02:05:41;;;;;;;11.05;7.97;;;;;;;11.30;52.07;97066.38;5093117;28;20030;-50
2022/04/22 02:08:09;;;;;;;8.95;4.35;;;;;;;11.36;51.56;97068.81;5092996;28;20394;-49
2022/04/22 02:10:35;;;;;;;16.27;3.78;;;;;;;11.50;51.01;97065.81;5094303;28;20024;-49
2022/04/22 02:13:00;;;;;;;8.90;5.50;;;;;;;11.52;51.24;97061.91;5094309;28;20100;-49
2022/04/22 02:15:29;;;;;;;6.72;4.82;;;;;;;11.50;51.77;97071.09;5094235;28;20017;-50
2022/04/22 02:17:55;;;;;;;10.50;5.68;;;;;;;11.50;52.11;97060.56;5094167;28;20099;-50
2022/04/22 02:20:22;;;;;;;5.50;3.95;;;;;;;11.54;51.98;97057.19;5092780;28;20123;-50
2022/04/22 02:22:48;;;;;;;9.57;5.10;;;;;;;11.39;52.07;97057.06;5092846;28;20028;-50
2022/04/22 02:25:13;;;;;;;8.73;3.63;;;;;;;11.28;52.34;97061.38;5094073;28;20020;-51
2022/04/22 02:30:25;;;;;;;8.73;4.82;;;;;;;10.86;53.40;97050.59;5094006;28;20511;-50
2022/04/22 02:32:51;;;;;;;9.13;3.78;;;;;;;10.95;53.84;97059.66;5092627;28;20107;-49
2022/04/22 02:35:21;;;;;;;9.13;4.88;;;;;;;11.08;53.37;97053.25;5093818;28;20016;-50
2022/04/22 02:37:48;;;;;;;12.43;3.83;;;;;;;11.04;53.27;97054.78;5093579;28;20052;-50
2022/04/22 02:45:26;;;;;;;11.48;3.83;;;;;;;11.03;53.32;97045.28;5093748;28;20027;-50
2022/04/22 02:45:44;;;;;;;8.60;4.05;;;;;;;11.20;53.70;97051.28;5093689;28;20146;-49
2022/04/22 02:48:10;;;;;;;9.38;4.53;;;;;;;11.27;53.41;97049.28;5092221;28;20111;-50
2022/04/22 02:50:36;;;;;;;6.60;3.40;;;;;;;11.26;52.96;97047.69;5093626;28;20024;-49
2022/04/22 02:53:01;;;;;;;8.85;3.58;;;;;;;11.19;53.19;97044.47;5093420;28;20556;-49
2022/04/22 02:55:27;;;;;;;7.10;3.70;;;;;;;11.22;53.09;97046.59;5092142;28;20028;-50
2022/04/22 02:57:53;;;;;;;8.45;3.45;;;;;;;11.20;52.69;97046.03;5092117;28;20031;-50
2022/04/22 03:00:19;;;;;;;8.10;3.15;;;;;;;11.11;52.62;97042.28;5092084;28;20409;-48
2022/04/22 03:02:44;;;;;;;6.13;3.08;;;;;;;10.82;52.86;97047.66;5093387;28;20031;-50
2022/04/22 03:05:11;;;;;;;7.03;3.33;;;;;;;10.64;54.01;97047.94;5093266;28;20024;-50
2022/04/22 03:07:38;;;;;;;14.07;4.10;;;;;;;10.53;54.28;97047.00;5091968;28;20035;-50
2022/04/22 03:10:07;;;;;;;11.98;5.18;;;;;;;10.60;54.77;97050.25;5091773;28;20485;-50
2022/04/22 03:12:34;;;;;;;11.30;3.78;;;;;;;10.66;54.45;97049.28;5091854;28;20490;-50
2022/04/22 03:15:01;;;;;;;5.30;3.70;;;;;;;10.63;54.44;97043.75;5093120;28;20035;-49
2022/04/22 03:17:27;;;;;;;10.85;4.30;;;;;;;10.53;54.49;97045.16;5093088;28;20020;-50
2022/04/22 03:19:53;;;;;;;7.43;4.47;;;;;;;10.64;54.52;97048.72;5091665;28;20028;-49
2022/04/22 03:22:19;;;;;;;13.93;5.38;;;;;;;10.75;54.07;97039.19;5091649;28;20035;-50
2022/04/22 03:24:45;;;;;;;9.63;4.45;;;;;;;10.91;53.78;97042.81;5091634;28;20027;-50
2022/04/22 03:27:10;;;;;;;12.77;5.45;;;;;;;10.91;53.50;97040.97;5091502;28;20031;-50
2022/04/22 03:29:36;;;;;;;8.85;4.45;;;;;;;10.85;53.51;97033.28;5092804;28;20023;-50
2022/04/22 03:32:05;;;;;;;8.63;5.55;;;;;;;10.86;53.54;97038.28;5092746;28;20055;-50
2022/04/22 03:34:32;;;;;;;7.95;5.70;;;;;;;10.69;54.14;97038.31;5092720;28;20024;-49
2022/04/22 03:36:59;;;;;;;10.93;5.78;;;;;;;10.67;54.16;97043.00;5092436;28;20105;-50
2022/04/22 03:39:25;;;;;;;11.15;4.53;;;;;;;10.85;54.13;97038.53;5091621;28;20081;-49
2022/04/22 03:41:51;;;;;;;9.52;4.10;;;;;;;10.93;53.93;97030.25;5091276;28;20032;-50
2022/04/22 03:44:17;;;;;;;8.48;4.03;;;;;;;10.89;53.56;97032.53;5092605;28;20062;-50
2022/04/22 03:46:42;;;;;;;6.97;4.30;;;;;;;10.70;53.80;97033.84;5091234;28;20032;-50
2022/04/22 03:49:09;;;;;;;8.85;4.07;;;;;;;10.60;54.28;97034.50;5091106;28;20405;-50
2022/04/22 03:51:36;;;;;;;11.88;3.85;;;;;;;10.61;54.10;97038.72;5092455;28;20028;-49
2022/04/22 03:54:02;;;;;;;5.85;3.80;;;;;;;10.67;54.26;97031.72;5092434;28;20031;-50
2022/04/22 03:59:12;;;;;;;16.52;4.60;;;;;;;10.79;53.79;97029.78;5092643;28;20043;-49
2022/04/22 04:01:38;;;;;;;9.82;4.00;;;;;;;10.78;54.01;97030.81;5092230;28;20033;-50
2022/04/22 04:04:04;;;;;;;12.98;6.03;;;;;;;10.65;54.15;97031.97;5091764;28;20024;-50
2022/04/22 04:06:30;;;;;;;10.23;5.13;;;;;;;10.40;54.69;97029.75;5092214;28;20478;-49
2022/04/22 04:17:07;;;;;;;13.63;10.85;;;;;;;10.04;55.77;97047.53;5092125;28;20089;-50
2022/04/22 04:25:02;;;;;;;13.80;4.47;;;;;;;10.35;54.79;97045.44;5092013;28;20039;-49
2022/04/22 04:27:29;;;;;;;18.48;5.57;;;;;;;10.30;55.08;97038.28;5092064;28;20390;-49
2022/04/22 04:29:55;;;;;;;8.10;3.95;;;;;;;10.19;55.10;97039.91;5091884;28;20017;-50
2022/04/22 04:32:21;;;;;;;13.75;4.70;;;;;;;10.10;55.97;97028.25;5090592;28;20383;-50
2022/04/22 04:34:46;;;;;;;15.27;4.45;;;;;;;10.05;55.86;97033.38;5091875;28;20028;-50
2022/04/22 04:37:16;;;;;;;8.40;4.43;;;;;;;10.08;56.57;97035.56;5090311;28;20047;-50
2022/04/22 04:39:41;;;;;;;17.13;4.93;;;;;;;10.37;55.70;97031.03;5091794;28;20024;-49
2022/04/22 04:42:08;;;;;;;10.20;5.28;;;;;;;10.73;55.12;97030.75;5091795;28;20485;-49
2022/04/22 04:44:36;;;;;;;10.00;4.95;;;;;;;10.90;53.91;97038.59;5091870;28;20077;-50
2022/04/22 04:47:02;;;;;;;11.98;7.05;;;;;;;10.73;53.96;97036.00;5091788;28;20024;-49
2022/04/22 04:49:29;;;;;;;15.25;11.68;;;;;;;10.65;54.44;97031.19;5090361;28;20054;-50
2022/04/22 04:51:54;;;;;;;25.92;11.70;;;;;;;10.70;54.50;97036.47;5091694;28;20478;-49
2022/04/22 04:54:20;;;;;;;12.15;7.88;;;;;;;10.80;54.13;97044.47;5090410;28;20032;-50
2022/04/22 04:56:46;;;;;;;11.77;6.93;;;;;;;10.67;53.83;97043.00;5091659;28;20028;-51
2022/04/22 04:59:12;;;;;;;14.55;7.45;;;;;;;10.60;54.05;97045.00;5091641;28;20107;-50
2022/04/22 05:01:38;;;;;;;10.85;7.80;;;;;;;10.57;54.27;97041.03;5091618;28;20025;-50
2022/04/22 05:04:04;;;;;;;16.55;8.82;;;;;;;10.56;54.21;97036.84;5091612;28;20024;-49
2022/04/22 05:06:30;;;;;;;19.75;8.63;;;;;;;10.51;54.48;97044.63;5091865;28;20023;-50
2022/04/22 05:08:56;;;;;;;11.98;6.45;;;;;;;10.42;54.63;97045.25;5090172;28;20034;-49
2022/04/22 05:11:22;;;;;;;10.88;6.93;;;;;;;10.44;54.50;97043.97;5091513;28;20421;-49
2022/04/22 05:13:48;;;;;;;15.60;5.47;;;;;;;10.37;55.03;97049.38;5090168;28;20035;-49
2022/04/22 05:16:14;;;;;;;7.45;5.00;;;;;;;10.29;55.31;97039.28;5093188;28;20482;-50
2022/04/22 05:18:40;;;;;;;22.02;5.95;;;;;;;10.20;55.39;97041.50;5094036;28;20028;-48
2022/04/22 05:21:06;;;;;;;14.80;5.05;;;;;;;10.10;55.96;97041.34;5095301;28;20032;-50
2022/04/22 05:23:33;;;;;;;17.38;5.00;;;;;;;10.00;56.11;97046.44;5095319;28;20073;-50
2022/04/22 05:26:01;;;;;;;17.02;5.03;;;;;;;10.09;55.98;97046.81;5095256;28;20440;-49
2022/04/22 05:28:30;;;;;;;11.45;5.60;;;;;;;10.33;55.88;97048.28;5095112;28;20055;-49
2022/04/22 05:33:40;;;;;;;14.52;4.60;;;;;;;10.89;54.45;97040.41;5095125;28;20035;-49
2022/04/22 05:36:06;;;;;;;14.15;4.88;;;;;;;11.08;53.89;97043.53;5093412;28;20028;-49
2022/04/22 05:38:33;;;;;;;7.93;4.28;;;;;;;11.24;53.42;97047.16;5093745;28;20032;-49
2022/04/22 05:40:58;;;;;;;17.52;5.65;;;;;;;11.45;53.06;97048.19;5094932;28;20024;-49
2022/04/22 05:43:24;;;;;;;41.13;6.03;;;;;;;11.48;53.00;97046.91;5093588;28;20490;-50
2022/04/22 05:45:50;;;;;;;20.10;6.30;;;;;;;11.80;52.92;97047.75;5093545;28;20111;-50
2022/04/22 05:48:16;;;;;;;17.65;5.50;;;;;;;12.16;51.67;97039.41;5094728;28;20028;-50
2022/04/22 05:50:42;;;;;;;18.25;6.53;;;;;;;12.42;50.58;97042.25;5094755;28;20023;-50
2022/04/22 05:53:08;;;;;;;9.52;6.57;;;;;;;12.54;50.50;97043.63;5093413;28;20405;-49
2022/04/22 05:55:34;;;;;;;21.20;8.82;;;;;;;12.84;50.07;97050.16;5093329;28;20031;-49
2022/04/22 05:58:00;;;;;;;21.63;7.22;;;;;;;13.00;49.29;97048.38;5093282;28;20093;-50
2022/04/22 06:00:30;;;;;;;11.57;6.38;;;;;;;13.10;48.72;97044.97;5093216;28;20027;-50
2022/04/22 06:02:56;;;;;;;11.80;6.57;;;;;;;13.08;48.47;97058.44;5094519;28;20048;-49
2022/04/22 06:05:23;;;;;;;18.15;10.13;;;;;;;13.27;48.78;97056.13;5094493;28;20048;-50
2022/04/22 06:10:34;;;;;;;16.35;10.93;;;;;;;13.80;47.15;97058.69;5094361;28;20031;-50
2022/04/22 06:13:00;;;;;;;12.70;8.68;;;;;;;13.93;46.81;97052.13;5094534;28;20546;-50
2022/04/22 06:15:27;;;;;;;15.52;5.97;;;;;;;14.04;46.53;97055.56;5094274;28;20073;-49
2022/04/22 06:17:53;;;;;;;18.58;7.68;;;;;;;14.15;46.53;97055.28;5094277;28;20020;-50
2022/04/22 06:20:19;;;;;;;18.45;11.25;;;;;;;14.18;45.61;97065.34;5094187;28;20035;-50
2022/04/22 06:22:45;;;;;;;12.27;5.13;;;;;;;14.16;45.74;97058.72;5094140;28;20013;-50
2022/04/22 06:25:12;;;;;;;21.23;9.35;;;;;;;14.23;45.91;97055.84;5094110;28;20054;-50
2022/04/22 06:27:40;;;;;;;19.45;6.10;;;;;;;14.31;45.76;97055.31;5093610;28;20559;-50
2022/04/22 06:30:08;;;;;;;15.88;8.18;;;;;;;14.38;45.64;97055.81;5092872;28;20106;-50
2022/04/22 06:32:36;;;;;;;15.23;8.35;;;;;;;14.42;45.84;97059.50;5093925;28;20405;-50
2022/04/22 06:35:04;;;;;;;18.90;9.15;;;;;;;14.69;45.79;97061.09;5093919;28;20020;-49
2022/04/22 06:37:44;;;;;;;14.80;8.85;;;;;;;14.84;44.99;97053.16;5093653;28;20047;-50
2022/04/22 06:45:49;;;;;;;20.67;7.90;;;;;;;16.13;42.93;97050.69;5094054;28;20046;-50
2022/04/22 06:48:18;;;;;;;13.02;7.55;;;;;;;16.54;42.19;97048.50;5093749;28;20459;-50
2022/04/22 06:50:46;;;;;;;10.85;5.70;;;;;;;16.94;41.77;97059.81;5093600;28;20035;-50
2022/04/22 06:53:13;;;;;;;16.30;8.98;;;;;;;17.12;40.69;97050.34;5093643;28;20417;-49
2022/04/22 06:55:40;;;;;;;15.50;7.40;;;;;;;17.26;40.41;97062.88;5093466;28;20486;-50
2022/04/22 06:58:10;;;;;;;10.45;7.32;;;;;;;17.16;40.89;97058.50;5093474;28;20048;-50
2022/04/22 07:00:36;;;;;;;15.60;6.93;;;;;;;17.01;40.71;97059.47;5093430;28;20047;-50
2022/04/22 07:03:04;;;;;;;11.25;5.93;;;;;;;16.67;41.15;97064.81;5093431;28;20026;-50
2022/04/22 07:05:33;;;;;;;15.13;6.22;;;;;;;16.33;42.04;97065.63;5093355;28;20034;-50
2022/04/22 07:07:59;;;;;;;8.00;5.05;;;;;;;16.30;42.29;97063.56;5091994;28;20023;-49
2022/04/22 07:10:25;;;;;;;14.82;7.93;;;;;;;16.38;42.01;97068.25;5093136;28;20055;-50
2022/04/22 07:12:56;;;;;;;10.73;6.68;;;;;;;16.77;41.53;97064.72;5091858;28;20036;-50
2022/04/22 07:15:22;;;;;;;12.65;6.85;;;;;;;17.51;40.51;97061.81;5091849;28;20458;-50
2022/04/22 07:17:47;;;;;;;14.20;7.88;;;;;;;18.19;38.31;97063.25;5093081;28;20367;-50
2022/04/22 07:20:14;;;;;;;11.10;6.57;;;;;;;18.80;37.67;97058.81;5091700;28;20027;-50
2022/04/22 07:22:41;;;;;;;10.73;5.78;;;;;;;19.88;36.09;97051.34;5092973;28;20127;-50
2022/04/22 07:25:08;;;;;;;16.77;7.38;;;;;;;21.43;33.56;97057.84;5091612;28;20103;-50
2022/04/22 07:27:40;;;;;;;10.13;6.07;;;;;;;21.96;32.72;97057.91;5091593;28;20016;-51
2022/04/22 07:30:09;;;;;;;14.30;5.50;;;;;;;22.44;32.29;97060.41;5091479;28;20027;-50
2022/04/22 07:32:39;;;;;;;36.00;6.95;;;;;;;23.12;31.18;97055.16;5091475;28;20024;-51
2022/04/22 07:35:12;;;;;;;43.13;8.75;;;;;;;24.39;30.04;97047.97;5091453;28;20028;-49
2022/04/22 07:37:42;;;;;;;15.52;6.45;;;;;;;25.66;27.88;97050.88;5092311;28;20040;-50
2022/04/22 07:40:09;;;;;;;9.82;5.45;;;;;;;26.40;26.27;97048.72;5073993;28;20020;-50
2022/04/22 07:42:36;;;;;;;28.10;14.48;;;;;;;27.47;25.18;97050.59;5092601;28;20461;-51
2022/04/22 07:47:48;;;;;;;38.50;27.83;;;;;;;28.68;23.15;97050.66;5092843;28;20398;-51
2022/04/22 07:50:15;;;;;;;19.17;9.68;;;;;;;29.51;22.71;97041.94;5091221;28;20024;-51
2022/04/22 07:52:44;;;;;;;20.40;6.28;;;;;;;30.07;22.02;97041.09;5092424;28;20600;-51
2022/04/22 07:55:11;;;;;;;25.75;7.70;;;;;;;30.03;21.56;97040.28;5092663;28;20446;-52
2022/04/22 07:57:36;;;;;;;31.77;5.97;;;;;;;29.28;22.15;97040.06;5092368;28;20106;-50
2022/04/22 08:00:04;;;;;;;24.05;5.07;;;;;;;29.09;22.75;97040.91;5092366;28;20024;-49
2022/04/22 08:02:29;;;;;;;20.77;5.65;;;;;;;29.03;22.57;97046.97;5092304;28;20558;-51
2022/04/22 08:04:55;;;;;;;21.92;5.70;;;;;;;29.15;22.67;97046.03;5092267;28;20111;-51
2022/04/22 08:07:21;;;;;;;11.77;5.25;;;;;;;29.03;22.50;97039.66;5090874;28;20032;-51
2022/04/22 08:09:47;;;;;;;20.10;5.47;;;;;;;29.15;22.47;97046.81;5090854;28;20020;-51
2022/04/22 08:12:14;;;;;;;8.50;4.90;;;;;;;28.67;22.60;97043.69;5090817;28;20020;-51
2022/04/22 08:14:40;;;;;;;12.68;5.03;;;;;;;28.05;23.28;97044.50;5092150;28;20490;-51
2022/04/22 08:17:07;;;;;;;18.38;6.07;;;;;;;27.54;24.40;97044.56;5092083;28;20023;-50
2022/04/22 08:19:33;;;;;;;22.15;6.43;;;;;;;27.55;24.35;97043.44;5092010;28;20153;-51
2022/04/22 08:21:59;;;;;;;19.48;5.38;;;;;;;27.29;24.62;97047.47;5090710;28;20024;-50
2022/04/22 08:24:25;;;;;;;15.32;5.25;;;;;;;26.87;24.69;97047.22;5073900;28;20031;-51
2022/04/22 08:26:51;;;;;;;9.15;5.63;;;;;;;26.52;25.32;97045.16;5090669;28;20031;-50
2022/04/22 08:29:17;;;;;;;18.42;5.45;;;;;;;25.89;26.12;97037.69;5091900;28;20069;-51
2022/04/22 08:31:45;;;;;;;17.83;9.23;;;;;;;25.43;26.63;97050.56;5091985;28;20501;-51
2022/04/22 08:34:11;;;;;;;17.23;5.00;;;;;;;25.43;26.93;97042.50;5090661;28;20016;-51
2022/04/22 08:36:36;;;;;;;17.08;6.03;;;;;;;25.15;27.31;97050.44;5091627;28;20040;-51
2022/04/22 08:39:04;;;;;;;11.70;5.57;;;;;;;24.95;27.25;97041.38;5091854;28;20099;-52
2022/04/22 08:41:34;;;;;;;18.63;5.50;;;;;;;24.57;27.76;97051.28;5091835;28;20012;-51
2022/04/22 08:44:01;;;;;;;20.17;5.25;;;;;;;24.72;27.98;97045.25;5090662;28;20105;-50
2022/04/22 08:52:00;;;;;;;18.92;6.32;;;;;;;27.74;24.50;97036.50;5095969;28;20047;-51
2022/04/22 08:54:27;;;;;;;13.35;5.18;;;;;;;28.44;23.80;97025.53;5094648;28;20027;-51
2022/04/22 08:56:54;;;;;;;26.65;5.85;;;;;;;28.81;22.76;97025.03;5094534;28;20081;-51
2022/04/22 08:59:20;;;;;;;12.57;5.00;;;;;;;28.96;22.55;97030.69;5096034;28;20394;-51
2022/04/22 09:01:46;;;;;;;20.42;5.35;;;;;;;28.90;22.58;97032.91;5095783;28;20057;-51
2022/04/22 09:04:12;;;;;;;15.70;5.68;;;;;;;28.52;22.93;97031.88;5095751;28;20028;-50
2022/04/22 09:06:38;;;;;;;11.98;5.55;;;;;;;27.93;23.01;97033.84;5095623;28;20017;-52
2022/04/22 09:09:07;;;;;;;22.13;6.32;;;;;;;27.29;24.18;97031.31;5095545;28;20023;-50
2022/04/22 09:11:42;;;;;;;22.20;6.93;;;;;;;27.13;24.27;97027.06;5096138;28;20385;-51
2022/04/22 09:14:08;;;;;;;18.45;5.95;;;;;;;27.13;24.62;97029.78;5094309;28;20036;-51
2022/04/22 09:16:34;;;;;;;12.88;5.80;;;;;;;27.69;24.12;97024.88;5094188;28;20054;-51
2022/04/22 09:19:01;;;;;;;11.68;5.40;;;;;;;28.63;23.16;97019.38;5095451;28;20035;-52
2022/04/22 09:21:29;;;;;;;13.10;6.75;;;;;;;29.83;21.62;97019.97;5095336;28;20024;-51
2022/04/22 09:23:54;;;;;;;16.90;5.55;;;;;;;30.69;20.77;97020.06;5095375;28;20028;-50
2022/04/22 09:26:25;;;;;;;15.15;5.28;;;;;;;31.25;19.83;97017.06;5093902;28;20016;-51
2022/04/22 09:29:04;;;;;;;22.13;7.13;;;;;;;31.42;19.79;97012.13;5093935;28;20031;-50
2022/04/22 09:31:44;;;;;;;16.85;5.78;;;;;;;30.90;19.84;97011.38;5093848;28;20178;-50
2022/04/22 09:34:10;;;;;;;11.52;5.53;;;;;;;30.60;19.78;97004.91;5093877;28;20084;-51
2022/04/22 09:45:08;;;;;;;11.60;5.82;;;;;;;30.72;19.30;97005.78;5094897;28;20532;-51
2022/04/22 09:47:36;;;;;;;7.68;5.38;;;;;;;30.84;19.14;97008.22;5094842;28;20107;-51
2022/04/22 09:50:05;;;;;;;12.98;6.38;;;;;;;30.66;19.14;97006.13;5094774;28;20401;-51
2022/04/22 09:52:34;;;;;;;12.02;6.13;;;;;;;30.69;19.32;96991.09;5094793;28;20024;-52
2022/04/22 09:55:08;;;;;;;9.98;5.78;;;;;;;30.77;19.24;96998.13;5093445;28;20029;-52
2022/04/22 09:57:54;;;;;;;11.40;4.82;;;;;;;30.82;19.48;96999.69;5094797;28;20052;-50
2022/04/22 10:00:25;;;;;;;14.63;5.50;;;;;;;30.95;19.45;97000.19;5093242;28;20452;-51
2022/04/22 10:02:52;;;;;;;13.13;5.50;;;;;;;30.90;19.35;96995.91;5092414;28;20051;-50
2022/04/22 10:05:19;;;;;;;23.67;5.88;;;;;;;31.21;19.07;97000.00;5094474;28;20371;-52
2022/04/22 10:07:50;;;;;;;12.45;6.88;;;;;;;31.11;19.18;97003.41;5093194;28;20063;-51
2022/04/22 10:10:18;;;;;;;12.88;7.15;;;;;;;31.13;19.30;97000.31;5094394;28;20413;-51
2022/04/22 10:12:46;;;;;;;20.30;8.77;;;;;;;31.52;19.26;96994.38;5093062;28;20035;-51
2022/04/22 10:15:13;;;;;;;12.30;5.75;;;;;;;32.43;18.55;96995.03;5094295;28;20016;-51
2022/04/22 10:17:39;;;;;;;13.93;6.15;;;;;;;33.01;17.73;96995.06;5093007;28;20031;-52
2022/04/22 10:20:07;;;;;;;16.33;9.10;;;;;;;33.35;17.72;96989.22;5092895;28;20024;-52
2022/04/22 10:22:34;;;;;;;11.13;5.75;;;;;;;33.53;17.59;96989.16;5094241;28;20032;-51
2022/04/22 10:25:07;;;;;;;10.30;4.97;;;;;;;33.48;17.08;96995.75;5094203;28;20393;-52
2022/04/22 10:27:39;;;;;;;8.65;6.00;;;;;;;33.33;17.41;96986.13;5094176;28;20089;-51
2022/04/22 10:30:09;;;;;;;10.98;5.50;;;;;;;33.43;17.06;96990.75;5092751;28;20126;-51
2022/04/22 10:32:36;;;;;;;10.38;5.10;;;;;;;33.48;17.49;96984.88;5092716;28;20020;-51
2022/04/22 10:35:03;;;;;;;8.40;5.30;;;;;;;33.91;16.95;96976.56;5093951;28;20052;-52
2022/04/22 10:37:32;;;;;;;11.88;6.60;;;;;;;34.17;16.79;96983.44;5093688;28;20032;-52
2022/04/22 10:39:58;;;;;;;16.45;6.70;;;;;;;34.79;16.23;96981.06;5093906;28;20024;-52
2022/04/22 10:42:33;;;;;;;10.82;5.28;;;;;;;35.27;15.97;96977.50;5093757;28;20069;-51
2022/04/22 10:47:47;;;;;;;10.73;4.75;;;;;;;34.83;16.44;96979.06;5094053;28;20043;-52
2022/04/22 10:50:34;;;;;;;9.55;5.45;;;;;;;34.59;16.10;96973.44;5092176;28;20537;-51
2022/04/22 10:53:09;;;;;;;10.10;5.38;;;;;;;34.12;16.32;96962.06;5092317;28;20024;-51
2022/04/22 10:55:40;;;;;;;11.05;5.57;;;;;;;34.06;16.74;96960.16;5093533;28;20451;-51
2022/04/22 10:58:21;;;;;;;19.85;5.30;;;;;;;33.95;16.70;96963.72;5093812;28;20295;-51
2022/04/22 11:00:52;;;;;;;12.52;6.20;;;;;;;34.11;16.56;96957.00;5092162;28;20046;-51
2022/04/22 11:03:31;;;;;;;10.00;5.80;;;;;;;34.08;15.99;96960.53;5092120;28;20043;-52
2022/04/22 11:05:59;;;;;;;19.20;5.70;;;;;;;33.33;16.76;96964.34;5092203;28;20082;-51
2022/04/22 11:08:30;;;;;;;12.75;5.78;;;;;;;32.74;17.63;96971.03;5093224;28;20028;-50
2022/04/22 11:10:55;;;;;;;10.75;7.40;;;;;;;32.64;17.36;96963.66;5091937;28;20497;-51
2022/04/22 11:13:31;;;;;;;9.05;5.88;;;;;;;32.68;17.62;96966.38;5093175;28;20031;-51
2022/04/22 11:16:07;;;;;;;11.40;6.63;;;;;;;32.90;16.98;96964.41;5093470;28;20030;-51
2022/04/22 11:18:35;;;;;;;14.48;6.65;;;;;;;33.25;16.87;96962.81;5093125;28;20168;-51
2022/04/22 11:21:09;;;;;;;11.70;7.07;;;;;;;33.70;16.68;96960.34;5091815;28;20058;-50
2022/04/22 11:23:41;;;;;;;9.93;6.43;;;;;;;33.98;16.36;96953.97;5093113;28;20035;-51
2022/04/22 11:26:07;;;;;;;11.23;5.55;;;;;;;33.82;16.10;96954.44;5092971;28;20497;-51
2022/04/22 11:28:38;;;;;;;10.13;6.40;;;;;;;33.63;16.57;96951.03;5091615;28;20493;-51
2022/04/22 11:31:10;;;;;;;11.50;6.32;;;;;;;33.46;16.45;96956.53;5091737;28;20064;-50
2022/04/22 11:33:57;;;;;;;10.02;6.43;;;;;;;32.96;16.79;96952.78;5091551;28;20397;-51
2022/04/22 11:36:24;;;;;;;8.38;5.35;;;;;;;32.72;17.14;96951.63;5092517;28;20047;-51
2022/04/22 11:38:51;;;;;;;10.30;6.03;;;;;;;33.18;17.14;96950.81;5092996;28;20031;-52
2022/04/22 11:41:18;;;;;;;8.02;5.80;;;;;;;34.07;16.22;96946.16;5091301;28;20401;-51
2022/04/22 11:43:45;;;;;;;17.85;5.60;;;;;;;34.54;15.60;96954.00;5092711;28;20028;-52
2022/04/22 11:46:12;;;;;;;8.35;5.50;;;;;;;34.53;15.44;96944.28;5074391;28;20518;-52
2022/04/22 11:49:05;;;;;;;9.77;6.03;;;;;;;33.95;15.10;96938.47;5091186;28;20055;-51
2022/04/22 11:51:36;;;;;;;9.80;6.53;;;;;;;33.08;16.11;96943.41;5089899;28;20043;-51
2022/04/22 11:54:02;;;;;;;8.90;5.80;;;;;;;32.23;17.05;96951.19;5091190;28;20028;-51
2022/04/22 11:56:27;;;;;;;8.32;5.25;;;;;;;31.93;17.04;96946.06;5092410;28;20031;-52
2022/04/22 11:58:55;;;;;;;12.70;10.43;;;;;;;31.72;17.29;96940.59;5092393;28;20097;-51
2022/04/22 12:06:59;;;;;;;9.02;7.20;;;;;;;33.08;16.56;96943.41;5092513;28;20055;-52
2022/04/22 12:09:25;;;;;;;9.15;8.23;;;;;;;32.21;16.95;96948.09;5092164;28;20485;-52
2022/04/22 12:11:51;;;;;;;10.75;6.55;;;;;;;31.56;17.60;96940.94;5092206;28;20411;-52
2022/04/22 12:14:28;;;;;;;13.27;7.57;;;;;;;30.81;18.56;96947.44;5090824;28;20016;-51
2022/04/22 12:17:02;;;;;;;19.83;13.52;;;;;;;30.41;18.77;96940.97;5091021;28;20028;-51
2022/04/22 12:19:28;;;;;;;;;;;;;;;30.30;18.65;96953.59;5092499;28;20019;-51
2022/04/22 12:21:55;;;;;;;19.52;9.77;;;;;;;29.99;19.06;96944.78;5090813;28;19999;-51
2022/04/22 12:24:23;;;;;;;9.30;8.38;;;;;;;29.85;19.27;96948.13;5091624;28;20024;-50
2022/04/22 12:26:51;;;;;;;11.50;7.45;;;;;;;29.99;19.27;96944.78;5090625;28;20528;-51
2022/04/22 12:29:18;;;;;;;17.05;10.77;;;;;;;30.10;19.33;96939.47;5091881;28;20024;-51
2022/04/22 12:31:46;;;;;;;103.00;93.85;;;;;;;30.37;19.02;96945.56;5090607;28;20084;-52
2022/04/22 12:34:14;;;;;;;28.33;20.92;;;;;;;30.75;18.98;96957.09;5091884;28;20056;-51